createdAt,value
2019-04-28T00:01:28.070Z,2.29
2019-04-28T00:06:37.178Z,2.67
2019-04-28T00:11:46.069Z,2.30
2019-04-28T00:16:54.944Z,2.72
2019-04-28T00:22:03.814Z,2.55
2019-04-28T00:27:12.646Z,1.98
2019-04-28T00:32:21.483Z,2.19
2019-04-28T00:37:28.911Z,2.85
2019-04-28T00:42:37.848Z,2.37
2019-04-28T00:47:52.586Z,2.41
2019-04-28T00:52:51.820Z,2.36
2019-04-28T00:58:00.907Z,2.31
2019-04-28T01:03:08.158Z,3.89
2019-04-28T01:08:17.069Z,3.22
2019-04-28T01:13:25.993Z,2.83
2019-04-28T01:18:34.837Z,2.67
2019-04-28T01:23:43.675Z,2.84
2019-04-28T01:28:52.518Z,3.50
2019-04-28T01:34:01.651Z,3.02
2019-04-28T01:39:10.223Z,3.29
2019-04-28T01:44:19.852Z,2.94
2019-04-28T01:49:29.491Z,3.28
2019-04-28T01:54:36.268Z,2.63
2019-04-28T01:59:45.139Z,3.11
2019-04-28T02:04:53.976Z,3.40
2019-04-28T02:10:02.814Z,2.75
2019-04-28T02:15:11.626Z,3.28
2019-04-28T02:20:20.466Z,2.70
2019-04-28T02:25:29.830Z,2.66
2019-04-28T02:30:45.489Z,2.97
2019-04-28T02:35:46.003Z,2.89
2019-04-28T02:40:54.878Z,2.77
2019-04-28T02:46:03.666Z,2.89
2019-04-28T02:51:12.493Z,3.26
2019-04-28T02:56:21.425Z,3.66
2019-04-28T03:01:30.894Z,3.50
2019-04-28T03:06:40.745Z,3.52
2019-04-28T03:11:46.923Z,3.93
2019-04-28T03:16:55.767Z,3.81
2019-04-28T03:22:04.607Z,3.59
2019-04-28T03:27:13.461Z,3.90
2019-04-28T03:32:32.498Z,3.37
2019-04-28T03:37:31.664Z,3.17
2019-04-28T03:42:41.075Z,3.17
2019-04-28T03:47:50.691Z,2.95
2019-04-28T03:52:56.281Z,2.72
2019-04-28T03:58:05.080Z,2.90
2019-04-28T04:03:13.890Z,2.82
2019-04-28T04:08:22.729Z,3.05
2019-04-28T04:13:32.982Z,2.98
2019-04-28T04:18:40.894Z,3.30
2019-04-28T04:23:50.766Z,3.33
2019-04-28T04:28:57.277Z,4.20
2019-04-28T04:34:06.123Z,3.20
2019-04-28T04:39:14.941Z,3.38
2019-04-28T04:44:23.794Z,2.48
2019-04-28T04:49:32.660Z,2.92
2019-04-28T04:54:41.536Z,2.75
2019-04-28T04:59:50.418Z,2.09
2019-04-28T05:05:00.478Z,2.23
2019-04-28T05:10:07.626Z,2.06
2019-04-28T05:15:16.449Z,2.03
2019-04-28T05:20:25.290Z,2.14
2019-04-28T05:25:34.206Z,1.78
2019-04-28T05:30:43.321Z,2.21
2019-04-28T05:35:54.566Z,1.82
2019-04-28T05:41:02.332Z,2.21
2019-04-28T05:46:07.401Z,2.11
2019-04-28T05:51:16.234Z,2.04
2019-04-28T05:56:25.077Z,1.97
2019-04-28T06:01:33.908Z,2.19
2019-04-28T06:06:42.734Z,2.18
2019-04-28T06:11:54.395Z,1.94
2019-04-28T06:17:00.527Z,2.36
2019-04-28T06:22:08.668Z,2.13
2019-04-28T06:27:17.594Z,2.16
2019-04-28T06:32:26.837Z,2.03
2019-04-28T06:37:35.682Z,2.13
2019-04-28T06:42:44.732Z,2.39
2019-04-28T06:47:53.574Z,2.19
2019-04-28T06:53:03.001Z,2.10
2019-04-28T06:58:10.834Z,2.00
2019-04-28T07:03:23.202Z,2.10
2019-04-28T07:08:28.025Z,2.16
2019-04-28T07:13:36.878Z,2.17
2019-04-28T07:18:46.110Z,2.22
2019-04-28T07:23:54.943Z,2.08
2019-04-28T07:29:03.774Z,2.29
2019-04-28T07:34:12.993Z,3.28
2019-04-28T07:39:21.857Z,2.29
2019-04-28T07:44:30.714Z,2.13
2019-04-28T07:49:39.538Z,2.65
2019-04-28T07:54:48.344Z,2.31
2019-04-28T07:59:57.174Z,2.08
2019-04-28T08:05:04.591Z,2.65
2019-04-28T08:10:13.443Z,2.57
2019-04-28T08:15:22.366Z,2.34
2019-04-28T08:20:31.221Z,2.41
2019-04-28T08:25:40.105Z,2.37
2019-04-28T08:30:49.042Z,2.14
2019-04-28T08:35:57.862Z,2.20
2019-04-28T08:41:06.887Z,2.30
2019-04-28T08:46:16.154Z,2.73
2019-04-28T08:51:25.046Z,2.59
2019-04-28T08:56:33.965Z,2.42
2019-04-28T09:01:43.022Z,2.07
2019-04-28T09:06:51.874Z,2.26
2019-04-28T09:12:00.701Z,2.30
2019-04-28T09:17:09.581Z,2.52
2019-04-28T09:22:18.442Z,2.16
2019-04-28T09:27:27.431Z,2.46
2019-04-28T09:32:36.323Z,2.55
2019-04-28T09:37:45.167Z,2.05
2019-04-28T09:42:54.056Z,2.20
2019-04-28T09:48:02.918Z,2.90
2019-04-28T09:53:11.790Z,2.20
2019-04-28T09:58:20.652Z,2.30
2019-04-28T10:03:30.982Z,2.60
2019-04-28T10:08:29.682Z,2.59
2019-04-28T10:13:38.571Z,2.67
2019-04-28T10:18:47.506Z,2.35
2019-04-28T10:23:56.439Z,2.31
2019-04-28T10:29:05.274Z,2.86
2019-04-28T10:34:14.134Z,2.76
2019-04-28T10:39:22.993Z,3.08
2019-04-28T10:44:32.246Z,3.71
2019-04-28T10:49:41.101Z,3.32
2019-04-28T10:54:49.969Z,2.46
2019-04-28T10:59:58.861Z,2.81
2019-04-28T11:05:08.623Z,2.58
2019-04-28T11:10:18.949Z,3.12
2019-04-28T11:15:17.886Z,11.69
2019-04-28T11:20:26.845Z,4.92
2019-04-28T11:25:35.696Z,3.75
2019-04-28T11:30:44.574Z,5.11
2019-04-28T11:35:53.562Z,3.20
2019-04-28T11:41:02.513Z,3.09
2019-04-28T11:46:11.460Z,4.13
2019-04-28T11:51:20.366Z,2.74
2019-04-28T11:56:40.852Z,2.88
2019-04-28T12:01:37.677Z,2.92
2019-04-28T12:06:46.565Z,2.44
2019-04-28T12:11:55.434Z,2.54
2019-04-28T12:17:04.401Z,2.59
2019-04-28T12:22:13.287Z,2.20
2019-04-28T12:27:22.172Z,2.28
2019-04-28T12:32:31.276Z,2.19
2019-04-28T12:37:40.170Z,2.24
2019-04-28T12:42:48.998Z,2.29
2019-04-28T12:47:58.025Z,2.35
2019-04-28T12:53:06.874Z,2.03
2019-04-28T12:58:15.837Z,2.31
2019-04-28T13:03:24.807Z,2.05
2019-04-28T13:08:33.685Z,2.00
2019-04-28T13:13:42.594Z,2.17
2019-04-28T13:18:51.573Z,2.33
2019-04-28T13:23:58.948Z,2.30
2019-04-28T13:29:07.786Z,2.13
2019-04-28T13:34:17.088Z,2.15
2019-04-28T13:39:25.959Z,1.84
2019-04-28T13:44:34.814Z,2.21
2019-04-28T13:49:43.684Z,2.33
2019-04-28T13:54:52.572Z,2.33
2019-04-28T14:00:01.543Z,2.28
2019-04-28T14:05:10.386Z,2.30
2019-04-28T14:10:19.447Z,2.12
2019-04-28T14:15:28.426Z,2.22
2019-04-28T14:20:37.419Z,2.23
2019-04-28T14:25:46.546Z,2.41
2019-04-28T14:30:55.548Z,2.49
2019-04-28T14:36:04.403Z,2.05
2019-04-28T14:41:13.247Z,2.49
2019-04-28T14:46:22.202Z,2.30
2019-04-28T14:51:31.239Z,2.37
2019-04-28T14:56:40.115Z,2.18
2019-04-28T15:01:49.035Z,2.45
2019-04-28T15:06:59.624Z,2.04
2019-04-28T15:12:06.572Z,2.68
2019-04-28T15:17:14.000Z,2.98
2019-04-28T15:22:23.037Z,2.90
2019-04-28T15:27:32.090Z,2.53
2019-04-28T15:32:40.979Z,2.63
2019-04-28T15:37:50.013Z,2.10
2019-04-28T15:42:58.946Z,2.42
2019-04-28T15:48:07.918Z,2.35
2019-04-28T15:53:17.755Z,2.55
2019-04-28T15:58:26.602Z,2.49
2019-04-28T16:03:35.654Z,2.89
2019-04-28T16:08:44.535Z,2.67
2019-04-28T16:13:53.430Z,2.76
2019-04-28T16:19:02.250Z,2.69
2019-04-28T16:24:11.213Z,2.37
2019-04-28T16:29:20.102Z,2.22
2019-04-28T16:34:28.998Z,2.45
2019-04-28T16:39:37.957Z,2.78
2019-04-28T16:44:47.298Z,2.61
2019-04-28T16:49:56.141Z,3.14
2019-04-28T16:55:05.020Z,2.61
2019-04-28T17:00:13.878Z,2.95
2019-04-28T17:05:22.782Z,2.64
2019-04-28T17:10:31.623Z,2.84
2019-04-28T17:15:40.618Z,2.93
2019-04-28T17:20:49.514Z,2.92
2019-04-28T17:25:58.471Z,2.69
2019-04-28T17:31:07.392Z,2.45
2019-04-28T17:36:16.388Z,2.88
2019-04-28T17:41:25.291Z,3.12
2019-04-28T17:46:34.226Z,3.14
2019-04-28T17:51:43.122Z,3.33
2019-04-28T17:56:52.187Z,3.03
2019-04-28T18:02:01.058Z,2.76
2019-04-28T18:07:09.958Z,2.69
2019-04-28T18:12:18.912Z,2.95
2019-04-28T18:17:27.802Z,2.61
2019-04-28T18:22:37.384Z,4.36
2019-04-28T18:27:45.434Z,16.53
2019-04-28T18:32:54.287Z,16.08
2019-04-28T18:38:03.256Z,12.96
2019-04-28T18:43:12.191Z,7.56
2019-04-28T18:48:21.078Z,3.33
2019-04-28T18:53:30.198Z,3.54
2019-04-28T18:58:39.048Z,5.94
2019-04-28T19:03:47.941Z,5.84
2019-04-28T19:08:56.818Z,5.16
2019-04-28T19:14:05.678Z,3.77
2019-04-28T19:19:14.535Z,3.48
2019-04-28T19:24:23.430Z,3.69
2019-04-28T19:29:32.411Z,4.73
2019-04-28T19:34:41.251Z,4.47
2019-04-28T19:39:50.062Z,5.38
2019-04-28T19:44:58.901Z,3.88
2019-04-28T19:50:07.882Z,5.00
2019-04-28T19:55:17.176Z,4.15
2019-04-28T20:00:26.061Z,3.54
2019-04-28T20:05:34.890Z,3.75
2019-04-28T20:10:43.839Z,3.04
2019-04-28T20:15:52.713Z,2.72
2019-04-28T20:21:01.584Z,2.89
2019-04-28T20:26:10.448Z,2.92
2019-04-28T20:31:19.294Z,2.53
2019-04-28T20:36:28.239Z,2.96
2019-04-28T20:41:37.196Z,2.60
2019-04-28T20:46:45.979Z,3.27
2019-04-28T20:51:54.904Z,3.24
2019-04-28T20:57:03.718Z,3.15
2019-04-28T21:02:12.633Z,3.35
2019-04-28T21:07:21.492Z,3.24
2019-04-28T21:12:30.415Z,3.27
2019-04-28T21:17:39.242Z,3.09
2019-04-28T21:22:48.068Z,3.38
2019-04-28T21:27:56.898Z,3.01
2019-04-28T21:33:05.763Z,7.06
2019-04-28T21:38:14.606Z,6.51
2019-04-28T21:43:23.542Z,11.33
2019-04-28T21:48:32.345Z,32.61
2019-04-28T21:53:41.173Z,52.10
2019-04-28T21:58:50.130Z,35.06
2019-04-28T22:03:58.959Z,5.37
2019-04-28T22:09:07.803Z,5.54
2019-04-28T22:14:16.704Z,4.61
2019-04-28T22:19:25.606Z,15.98
2019-04-28T22:24:34.446Z,7.28
2019-04-28T22:29:43.315Z,3.80
2019-04-28T22:34:52.169Z,5.66
2019-04-28T22:40:01.133Z,3.73
2019-04-28T22:45:09.982Z,8.26
2019-04-28T22:50:18.807Z,6.76
2019-04-28T22:55:27.655Z,4.69
2019-04-28T23:00:36.518Z,3.36
2019-04-28T23:05:45.406Z,2.74
2019-04-28T23:10:54.390Z,2.92
2019-04-28T23:16:10.728Z,2.97
2019-04-28T23:21:09.636Z,2.95
2019-04-28T23:26:18.497Z,2.77
2019-04-28T23:31:27.698Z,2.65
2019-04-28T23:36:36.598Z,3.43
2019-04-28T23:41:45.471Z,3.13
2019-04-28T23:46:54.275Z,2.58
2019-04-28T23:52:03.093Z,2.69
2019-04-28T23:57:12.369Z,2.60
